Wirral, United Kingdom
Current Conditions -  °F | °C
As of 6:50 PM on Sunday 23 Nov 2014 (Local Time) from EGGP Reporting Station
Few Clouds Few Clouds  
Wind Chill: 44°   Ceiling: Unl
Heat Index: 46°   Visibility: 6mi
Dew Point: 37°   Wind: 6mph
Humidity: 71%   Direction: 310°NW
Pressure: 30.09"   Gusts: NA
Location:  53.4°N, 3.11°W
Report Text: EGGP 231850Z 31005KT 9999 FEW031 08/03 Q1019
Loading
Personal Weather Stations






























Interactive Weather Map New forecast layout! Learn more

10-Day Weather Forecast

Advertisements
Track Severe Weather on mobile